Cape Town International Airport
FACT : now visible

Airfield :











YOU CAN JOIN US ON...

 
LOGIN :

Register | Disclaimer

   EN    FR    IT 

 









Legend :    VFR   Marginal VFR   IFR   Intensive IFR   Very Intensive IFR
Visi :
Ceiling :
>= 8 km
>= 3000ft
5 to 8 km
1000 to 3000 ft
1500m to 5 km
500 to 1000 ft
800 to 1500m
200 to 500 ft
< 800m
< 200 ft
Symbols :   Thunderstorms  Fog  Heavy snow  Heavy precipitations  Wind > 20 kt







- Airport Elevation : 151 ft
- IATA code : CPT


FACT - Cape Town International

CURRENT METAR :
  • 161200Z 16009KT 9999 FEW027 BKN032 24/17 Q1016 NOSIG

EXPIRED METARs :
  • 161100Z 18008KT 9999 SCT025 BKN035 24/17 Q1016 NOSIG
  • 161000Z VRB02KT 9999 SCT025 BKN030 24/17 Q1016 NOSIG

TAF TAF FACT
Valid from the 16 at 12:00 until the 17 at 18:00 UTC


161000Z 1612/1718 18015KT 9999 SCT030 TX28/1712Z TN17/1704Z
FM161700 18012KT CAVOK
BECMG 1710/1712 17023KT
FACA FIR / Africa



MET'MAP, your aeronautical weather chart ! - Copyright ORBIFLY December 2007 - Disclaimer

ORBIFLY MET'MAP TEAM :

Programming & Development : Alexandra Zaïnal
Concept & Development : Baudouin d'Aumeries
Co-Development & Prog : Marc-Olivier Méhu
Technical & hardware support : Manuel Goepfert

Contact : metmap@orbifly.com




SOURCES & CREDITS :

   NOAA       Earth
Advisory